Map

Track Data

SID SEASON NUMBER BASIN SUBBASIN NAME ISO_TIME NATURE LAT LON WMO_WIND WMO_PRES WMO_AGENCY TRACK_TYPE DIST2LAND LANDFALL IFLAG USA_AGENCY USA_ATCF_ID USA_LAT USA_LON USA_RECORD USA_STATUS USA_WIND USA_PRES USA_SSHS USA_R34_NE USA_R34_SE USA_R34_SW USA_R34_NW USA_R50_NE USA_R50_SE USA_R50_SW USA_R50_NW USA_R64_NE USA_R64_SE USA_R64_SW USA_R64_NW USA_POCI USA_ROCI USA_RMW USA_EYE TOKYO_LAT TOKYO_LON TOKYO_GRADE TOKYO_WIND TOKYO_PRES TOKYO_R50_DIR TOKYO_R50_LONG TOKYO_R50_SHORT TOKYO_R30_DIR TOKYO_R30_LONG TOKYO_R30_SHORT TOKYO_LAND CMA_LAT CMA_LON CMA_CAT CMA_WIND CMA_PRES HKO_LAT HKO_LON HKO_CAT HKO_WIND HKO_PRES NEWDELHI_LAT NEWDELHI_LON NEWDELHI_GRADE NEWDELHI_WIND NEWDELHI_PRES NEWDELHI_CI NEWDELHI_DP NEWDELHI_POCI REUNION_LAT REUNION_LON REUNION_TYPE REUNION_WIND REUNION_PRES REUNION_TNUM REUNION_CI REUNION_RMW REUNION_R34_NE REUNION_R34_SE REUNION_R34_SW REUNION_R34_NW REUNION_R50_NE REUNION_R50_SE REUNION_R50_SW REUNION_R50_NW REUNION_R64_NE REUNION_R64_SE REUNION_R64_SW REUNION_R64_NW BOM_LAT BOM_LON BOM_TYPE BOM_WIND BOM_PRES BOM_TNUM BOM_CI BOM_RMW BOM_R34_NE BOM_R34_SE BOM_R34_SW BOM_R34_NW BOM_R50_NE BOM_R50_SE BOM_R50_SW BOM_R50_NW BOM_R64_NE BOM_R64_SE BOM_R64_SW BOM_R64_NW BOM_ROCI BOM_POCI BOM_EYE BOM_POS_METHOD BOM_PRES_METHOD NADI_LAT NADI_LON NADI_CAT NADI_WIND NADI_PRES WELLINGTON_LAT WELLINGTON_LON WELLINGTON_WIND WELLINGTON_PRES DS824_LAT DS824_LON DS824_STAGE DS824_WIND DS824_PRES TD9636_LAT TD9636_LON TD9636_STAGE TD9636_WIND TD9636_PRES TD9635_LAT TD9635_LON TD9635_WIND TD9635_PRES TD9635_ROCI NEUMANN_LAT NEUMANN_LON NEUMANN_CLASS NEUMANN_WIND NEUMANN_PRES MLC_LAT MLC_LON MLC_CLASS MLC_WIND MLC_PRES USA_GUST BOM_GUST BOM_GUST_PER REUNION_GUST REUNION_GUST_PER USA_SEAHGT USA_SEARAD_NE USA_SEARAD_SE USA_SEARAD_SW USA_SEARAD_NW STORM_SPEED STORM_DIR
1927201N16132 1927 31 WP MM NOT_NAMED 1927-07-20 10:00:00 NR 15.6000 131.600 main 760 751 __________O___ -1 15.6000 131.600 7 2 287
1927201N16132 1927 31 WP MM NOT_NAMED 1927-07-20 12:00:00 NR 15.6233 131.521 main 751 742 __________P___ -1 15.6233 131.521 7 3 287
1927201N16132 1927 31 WP MM NOT_NAMED 1927-07-20 15:00:00 NR 15.6621 131.381 main 747 729 __________P___ -1 15.6621 131.381 7 3 285
1927201N16132 1927 31 WP MM NOT_NAMED 1927-07-20 18:00:00 NR 15.7106 131.190 main 729 708 __________P___ -1 15.7106 131.190 7 5 284
1927201N16132 1927 31 WP MM NOT_NAMED 1927-07-20 21:00:00 NR 15.7744 130.915 main 708 699 __________P___ -1 15.7744 130.915 7 6 283
1927201N16132 1927 31 WP MM NOT_NAMED 1927-07-20 22:00:00 NR 15.8000 130.800 main 699 680 __________O___ -1 15.8000 130.800 7 8 283
1927201N16132 1927 31 WP MM NOT_NAMED 1927-07-21 00:00:00 NR 15.8582 130.530 main 680 645 __________P___ -1 15.8582 130.530 7 9 282
1927201N16132 1927 31 WP MM NOT_NAMED 1927-07-21 03:00:00 NR 15.9581 130.049 main 645 600 __________P___ -1 15.9581 130.049 7 10 282
1927201N16132 1927 31 WP MM NOT_NAMED 1927-07-21 06:00:00 NR 16.0643 129.516 main 600 557 __________P___ -1 16.0643 129.516 7 11 281
1927201N16132 1927 31 WP MM NOT_NAMED 1927-07-21 09:00:00 NR 16.1677 128.975 main 557 538 __________P___ -1 16.1677 128.975 7 11 281
1927201N16132 1927 31 WP MM NOT_NAMED 1927-07-21 10:00:00 NR 16.2000 128.800 main 538 510 __________O___ -1 16.2000 128.800 7 9 281
1927201N16132 1927 31 WP MM NOT_NAMED 1927-07-21 12:00:00 NR 16.2552 128.499 main 515 479 __________P___ -1 16.2552 128.499 7 9 281
1927201N16132 1927 31 WP MM NOT_NAMED 1927-07-21 15:00:00 NR 16.3320 128.060 main 479 443 __________P___ -1 16.3320 128.060 7 9 280
1927201N16132 1927 31 WP MM NOT_NAMED 1927-07-21 18:00:00 NR 16.4045 127.620 main 443 418 __________P___ -1 16.4045 127.620 7 9 279
1927201N16132 1927 31 WP MM NOT_NAMED 1927-07-21 21:00:00 NR 16.4759 127.161 main 418 402 __________P___ -1 16.4759 127.161 7 9 279
1927201N16132 1927 31 WP MM NOT_NAMED 1927-07-21 22:00:00 NR 16.5000 127.000 main 402 380 __________O___ -1 16.5000 127.000 7 10 279
1927201N16132 1927 31 WP MM NOT_NAMED 1927-07-22 00:00:00 NR 16.5529 126.635 main 381 349 __________P___ -1 16.5529 126.635 7 11 278
1927201N16132 1927 31 WP MM NOT_NAMED 1927-07-22 03:00:00 NR 16.6323 126.062 main 349 320 __________P___ -1 16.6323 126.062 7 11 278
1927201N16132 1927 31 WP MM NOT_NAMED 1927-07-22 06:00:00 NR 16.7085 125.492 main 320 266 __________P___ -1 16.7085 125.492 7 11 278
1927201N16132 1927 31 WP MM NOT_NAMED 1927-07-22 09:00:00 NR 16.7785 124.961 main 266 245 __________P___ -1 16.7785 124.961 7 10 278
1927201N16132 1927 31 WP MM NOT_NAMED 1927-07-22 10:00:00 NR 16.8000 124.800 main 245 213 __________O___ -1 16.8000 124.800 3 8 277
1927201N16132 1927 31 WP MM NOT_NAMED 1927-07-22 12:00:00 NR 16.8331 124.529 main 213 180 __________P___ -1 16.8331 124.529 3 7 277
1927201N16132 1927 31 WP MM NOT_NAMED 1927-07-22 15:00:00 NR 16.8769 124.172 main 180 138 __________P___ -1 16.8769 124.172 3 7 278
1927201N16132 1927 31 WP MM NOT_NAMED 1927-07-22 18:00:00 NR 16.9219 123.847 main 138 106 __________P___ -1 16.9219 123.847 3 6 279
1927201N16132 1927 31 WP MM NOT_NAMED 1927-07-22 21:00:00 NR 16.9776 123.517 main 106 95 __________P___ -1 16.9776 123.517 3 7 280
1927201N16132 1927 31 WP MM NOT_NAMED 1927-07-22 22:00:00 NR 17.0000 123.400 main 95 63 __________O___ -1 17.0000 123.400 4 8 276
1927201N16132 1927 31 WP MM NOT_NAMED 1927-07-23 00:00:00 NR 17.0187 123.118 main 63 21 __________P___ -1 17.0187 123.118 4 8 275
1927201N16132 1927 31 WP MM NOT_NAMED 1927-07-23 03:00:00 NR 17.0585 122.675 main 24 0 __________P___ -1 17.0585 122.675 4 9 279
1927201N16132 1927 31 WP MM NOT_NAMED 1927-07-23 06:00:00 NR 17.1456 122.235 main 0 0 __________P___ -1 17.1456 122.235 4 9 288
1927201N16132 1927 31 WP MM NOT_NAMED 1927-07-23 09:00:00 NR 17.3174 121.825 main 0 0 __________P___ -1 17.3174 121.825 4 9 297
1927201N16132 1927 31 WP MM NOT_NAMED 1927-07-23 10:00:00 NR 17.4000 121.700 main 0 0 __________O___ -1 17.4000 121.700 4 9 317
1927201N16132 1927 31 WP MM NOT_NAMED 1927-07-23 12:00:00 NR 17.6510 121.501 main 0 0 __________P___ -1 17.6510 121.501 4 10 329
1927201N16132 1927 31 WP MM NOT_NAMED 1927-07-23 15:00:00 NR 18.1168 121.241 main 0 0 __________P___ -1 18.1168 121.241 4 11 333
1927201N16132 1927 31 WP MM NOT_NAMED 1927-07-23 18:00:00 NR 18.6178 120.990 main 10 10 __________P___ -1 18.6178 120.990 4 11 332
1927201N16132 1927 31 WP MM NOT_NAMED 1927-07-23 21:00:00 NR 19.0727 120.708 main 56 56 __________P___ -1 19.0727 120.708 4 10 328
1927201N16132 1927 31 WP MM NOT_NAMED 1927-07-23 22:00:00 NR 19.2000 120.600 main 70 70 __________O___ -1 19.2000 120.600 4 9 309
1927201N16132 1927 31 WP MM NOT_NAMED 1927-07-24 00:00:00 NR 19.3661 120.332 main 103 103 __________P___ -1 19.3661 120.332 4 9 297
1927201N16132 1927 31 WP MM NOT_NAMED 1927-07-24 03:00:00 NR 19.5395 119.885 main 138 138 __________P___ -1 19.5395 119.885 4 9 289
1927201N16132 1927 31 WP MM NOT_NAMED 1927-07-24 06:00:00 NR 19.6577 119.413 main 191 191 __________P___ -1 19.6577 119.413 4 9 284
1927201N16132 1927 31 WP MM NOT_NAMED 1927-07-24 09:00:00 NR 19.7615 118.948 main 237 237 __________P___ -1 19.7615 118.948 4 9 284
1927201N16132 1927 31 WP MM NOT_NAMED 1927-07-24 10:00:00 NR 19.8000 118.800 main 245 245 __________O___ -1 19.8000 118.800 4 8 291
1927201N16132 1927 31 WP MM NOT_NAMED 1927-07-24 12:00:00 NR 19.9052 118.540 main 277 277 __________P___ -1 19.9052 118.540 4 8 294
1927201N16132 1927 31 WP MM NOT_NAMED 1927-07-24 15:00:00 NR 20.0696 118.170 main 315 324 __________P___ -1 20.0696 118.170 4 8 296
1927201N16132 1927 31 WP MM NOT_NAMED 1927-07-24 18:00:00 NR 20.2446 117.807 main 330 294 __________P___ -1 20.2446 117.807 4 8 298
1927201N16132 1927 31 WP MM NOT_NAMED 1927-07-24 21:00:00 NR 20.4335 117.431 main 294 280 __________P___ -1 20.4335 117.431 4 8 298
1927201N16132 1927 31 WP MM NOT_NAMED 1927-07-24 22:00:00 NR 20.5000 117.300 main 280 262 __________O___ -1 20.5000 117.300 4 9 298
1927201N16132 1927 31 WP MM NOT_NAMED 1927-07-25 00:00:00 NR 20.6385 117.017 main 262 217 __________P___ -1 20.6385 117.017 4 9 298
1927201N16132 1927 31 WP MM NOT_NAMED 1927-07-25 03:00:00 NR 20.8589 116.574 main 217 181 __________P___ -1 20.8589 116.574 4 10 298
1927201N16132 1927 31 WP MM NOT_NAMED 1927-07-25 06:00:00 NR 21.0890 116.116 main 181 156 __________P___ -1 21.0890 116.116 4 10 298
1927201N16132 1927 31 WP MM NOT_NAMED 1927-07-25 09:00:00 NR 21.3225 115.654 main 156 137 __________P___ -1 21.3225 115.654 4 10 298
1927201N16132 1927 31 WP MM NOT_NAMED 1927-07-25 10:00:00 NR 21.4000 115.500 main 137 116 __________O___ -1 21.4000 115.500 4 9 299
1927201N16132 1927 31 WP MM NOT_NAMED 1927-07-25 12:00:00 NR 21.5386 115.228 main 116 84 __________P___ -1 21.5386 115.228 4 9 299
1927201N16132 1927 31 WP MM NOT_NAMED 1927-07-25 15:00:00 NR 21.7466 114.821 main 84 35 __________P___ -1 21.7466 114.821 4 9 299
1927201N16132 1927 31 WP MM NOT_NAMED 1927-07-25 18:00:00 NR 21.9664 114.385 main 35 22 __________P___ -1 21.9664 114.385 4 10 298
1927201N16132 1927 31 WP MM NOT_NAMED 1927-07-25 21:00:00 NR 22.2109 113.886 main 22 15 __________P___ -1 22.2109 113.886 4 11 298
1927201N16132 1927 31 WP MM NOT_NAMED 1927-07-25 22:00:00 NR 22.3000 113.700 main 20 0 __________O___ -1 22.3000 113.700 4 13 302
1927201N16132 1927 31 WP MM NOT_NAMED 1927-07-26 00:00:00 NR 22.5599 113.277 main 0 0 __________P___ -1 22.5599 113.277 4 15 303
1927201N16132 1927 31 WP MM NOT_NAMED 1927-07-26 03:00:00 NR 22.9762 112.572 main 0 0 __________P___ -1 22.9762 112.572 4 16 300
1927201N16132 1927 31 WP MM NOT_NAMED 1927-07-26 06:00:00 NR 23.3433 111.816 main 0 0 __________P___ -1 23.3433 111.816 4 15 293
1927201N16132 1927 31 WP MM NOT_NAMED 1927-07-26 09:00:00 NR 23.5707 111.050 main 0 0 __________P___ -1 23.5707 111.050 4 15 285
1927201N16132 1927 31 WP MM NOT_NAMED 1927-07-26 10:00:00 NR 23.6000 110.800 main 0 0 __________O___ -1 23.6000 110.800 2 13 270
1927201N16132 1927 31 WP MM NOT_NAMED 1927-07-26 12:00:00 NR 23.5766 110.314 main 0 0 __________P___ -1 23.5766 110.314 2 13 258
1927201N16132 1927 31 WP MM NOT_NAMED 1927-07-26 15:00:00 NR 23.3674 109.619 main 0 0 __________P___ -1 23.3674 109.619 2 14 245
1927201N16132 1927 31 WP MM NOT_NAMED 1927-07-26 18:00:00 NR 23.0065 108.955 main 0 0 __________P___ -1 23.0065 108.955 2 15 236
1927201N16132 1927 31 WP MM NOT_NAMED 1927-07-26 21:00:00 NR 22.5579 108.312 main 0 0 __________P___ -1 22.5579 108.312 2 15 232
1927201N16132 1927 31 WP MM NOT_NAMED 1927-07-26 22:00:00 NR 22.4000 108.100 main 0 __________O___ -1 22.4000 108.100 3 15 231

Digital Typhoon Data and Search

About IBTrACS Database

This database is a web-friendly format of International Best Track Archive for Climate Stewardship (IBTrACS), a global best track data archive curated by NOAA dating back to 1842.

Updated: 2021-12-06